createdAt,value
2023-05-19T00:01:28.381Z,1029.325
2023-05-19T00:06:31.662Z,1029.286
2023-05-19T00:11:28.160Z,1029.285
2023-05-19T00:16:28.609Z,1029.259
2023-05-19T00:21:30.494Z,1029.176
2023-05-19T00:26:27.533Z,1029.175
2023-05-19T00:31:27.839Z,1029.139
2023-05-19T00:36:27.599Z,1029.149
2023-05-19T00:41:33.880Z,1029.148
2023-05-19T00:46:27.349Z,1029.098
2023-05-19T00:51:29.971Z,1029.115
2023-05-19T00:56:27.485Z,1029.071
2023-05-19T01:01:27.921Z,1029.041
2023-05-19T01:06:27.890Z,1028.954
2023-05-19T01:11:27.708Z,1028.948
2023-05-19T01:16:39.613Z,1029.037
2023-05-19T01:21:44.516Z,1029.036
2023-05-19T01:26:38.731Z,1028.951
2023-05-19T01:31:29.214Z,1028.925
2023-05-19T01:36:27.619Z,1028.84
2023-05-19T01:41:29.547Z,1028.783
2023-05-19T01:46:27.866Z,1028.787
2023-05-19T01:51:27.731Z,1028.769
2023-05-19T01:56:30.965Z,1028.736
2023-05-19T02:01:35.240Z,1028.727
2023-05-19T02:06:32.231Z,1028.741
2023-05-19T02:11:31.479Z,1028.757
2023-05-19T02:16:31.384Z,1028.741
2023-05-19T02:21:31.641Z,1028.687
2023-05-19T02:26:27.591Z,1028.633
2023-05-19T02:31:28.944Z,1028.686
2023-05-19T02:36:30.992Z,1028.671
2023-05-19T02:41:27.675Z,1028.654
2023-05-19T02:46:27.558Z,1028.594
2023-05-19T02:51:29.966Z,1028.601
2023-05-19T02:56:28.218Z,1028.592
2023-05-19T03:01:32.593Z,1028.544
2023-05-19T03:06:27.709Z,1028.525
2023-05-19T03:11:28.765Z,1028.485
2023-05-19T03:16:28.124Z,1028.473
2023-05-19T03:21:27.594Z,1028.49
2023-05-19T03:26:31.952Z,1028.486
2023-05-19T03:31:27.389Z,1028.405
2023-05-19T03:36:32.465Z,1028.387
2023-05-19T03:41:29.547Z,1028.396
2023-05-19T03:46:27.432Z,1028.36
2023-05-19T03:51:30.068Z,1028.367
2023-05-19T03:56:27.800Z,1028.359
2023-05-19T04:01:27.386Z,1028.42
2023-05-19T04:06:27.548Z,1028.421
2023-05-19T04:11:27.345Z,1028.382
2023-05-19T04:16:27.686Z,1028.419
2023-05-19T04:21:27.531Z,1028.447
2023-05-19T04:26:31.054Z,1028.534
2023-05-19T04:31:53.032Z,1028.503
2023-05-19T04:36:27.637Z,1028.52
2023-05-19T04:41:33.703Z,1028.492
2023-05-19T04:46:30.027Z,1028.511
2023-05-19T04:51:29.740Z,1028.539
2023-05-19T04:56:28.852Z,1028.549
2023-05-19T05:01:31.452Z,1028.612
2023-05-19T05:06:29.235Z,1028.62
2023-05-19T05:11:27.908Z,1028.622
2023-05-19T05:16:27.788Z,1028.643
2023-05-19T05:21:31.785Z,1028.69
2023-05-19T05:26:30.293Z,1028.691
2023-05-19T05:31:28.760Z,1028.754
2023-05-19T05:36:27.390Z,1028.705
2023-05-19T05:41:27.414Z,1028.673
2023-05-19T05:46:27.667Z,1028.642
2023-05-19T05:51:29.365Z,1028.616
2023-05-19T05:56:27.952Z,1028.618
2023-05-19T06:01:28.332Z,1028.569
2023-05-19T06:06:27.949Z,1028.564
2023-05-19T06:11:27.379Z,1028.595
2023-05-19T06:16:31.087Z,1028.562
2023-05-19T06:21:27.297Z,1028.55
2023-05-19T06:26:27.409Z,1028.47
2023-05-19T06:31:27.352Z,1028.423
2023-05-19T06:36:27.268Z,1028.478
2023-05-19T06:41:27.378Z,1028.445
2023-05-19T06:46:27.315Z,1028.465
2023-05-19T06:51:27.362Z,1028.43
2023-05-19T06:56:27.350Z,1028.443
2023-05-19T07:01:27.635Z,1028.449
2023-05-19T07:06:27.485Z,1028.505
2023-05-19T07:11:27.345Z,1028.525
2023-05-19T07:16:28.529Z,1028.531
2023-05-19T07:21:27.357Z,1028.534
2023-05-19T07:26:28.192Z,1028.546
2023-05-19T07:31:27.360Z,1028.523
2023-05-19T07:36:27.487Z,1028.534
2023-05-19T07:41:27.249Z,1028.548
2023-05-19T07:46:27.523Z,1028.562
2023-05-19T07:51:27.291Z,1028.545
2023-05-19T07:56:27.476Z,1028.469
2023-05-19T08:01:28.270Z,1028.413
2023-05-19T08:06:28.621Z,1028.425
2023-05-19T08:11:29.410Z,1028.317
2023-05-19T08:16:27.284Z,1028.296
2023-05-19T08:21:27.434Z,1028.307
2023-05-19T08:26:27.308Z,1028.276
2023-05-19T08:31:27.320Z,1028.252
2023-05-19T08:36:27.812Z,1028.191
2023-05-19T08:41:27.533Z,1028.111
2023-05-19T08:46:29.012Z,1028.124
2023-05-19T08:51:34.970Z,1028.122
2023-05-19T08:56:28.627Z,1028.119
2023-05-19T09:01:28.941Z,1028.143
2023-05-19T09:06:27.436Z,1028.175
2023-05-19T09:11:28.494Z,1028.174
2023-05-19T09:16:28.622Z,1028.059
2023-05-19T09:21:42.118Z,1027.98
2023-05-19T09:26:28.006Z,1027.953
2023-05-19T09:31:28.277Z,1028.016
2023-05-19T09:36:32.971Z,1027.983
2023-05-19T09:41:31.273Z,1028.002
2023-05-19T09:51:35.548Z,1028.036
2023-05-19T09:56:29.284Z,1028.008
2023-05-19T10:01:27.576Z,1027.898
2023-05-19T10:06:27.687Z,1027.931
2023-05-19T10:11:27.951Z,1027.926
2023-05-19T10:16:30.111Z,1027.928
2023-05-19T10:21:29.349Z,1027.854
2023-05-19T10:26:27.809Z,1027.85
2023-05-19T10:31:27.379Z,1027.83
2023-05-19T10:36:37.941Z,1027.791
2023-05-19T10:41:31.495Z,1027.784
2023-05-19T10:46:28.494Z,1027.783
2023-05-19T10:51:32.317Z,1027.744
2023-05-19T10:56:36.982Z,1027.744
2023-05-19T11:01:34.070Z,1027.694
2023-05-19T11:06:29.029Z,1027.682
2023-05-19T11:11:27.443Z,1027.564
2023-05-19T11:16:30.541Z,1027.525
2023-05-19T11:21:27.639Z,1027.516
2023-05-19T11:26:41.360Z,1027.609
2023-05-19T11:31:28.790Z,1027.604
2023-05-19T11:36:31.315Z,1027.557
2023-05-19T11:41:28.322Z,1027.447
2023-05-19T11:46:29.725Z,1027.519
2023-05-19T11:51:28.848Z,1027.556
2023-05-19T11:56:27.499Z,1027.477
2023-05-19T12:01:27.703Z,1027.42
2023-05-19T12:06:27.338Z,1027.419
2023-05-19T12:11:29.353Z,1027.383
2023-05-19T12:16:27.926Z,1027.453
2023-05-19T12:21:33.896Z,1027.406
2023-05-19T12:26:27.589Z,1027.364
2023-05-19T12:31:27.421Z,1027.222
2023-05-19T12:36:28.972Z,1027.208
2023-05-19T12:41:27.974Z,1027.184
2023-05-19T12:46:27.302Z,1027.085
2023-05-19T12:51:28.499Z,1027.07
2023-05-19T12:56:29.395Z,1027.114
2023-05-19T13:01:28.735Z,1026.951
2023-05-19T13:06:27.322Z,1026.988
2023-05-19T13:11:27.533Z,1026.933
2023-05-19T13:16:28.996Z,1026.977
2023-05-19T13:21:27.306Z,1026.901
2023-05-19T13:26:27.485Z,1026.784
2023-05-19T13:31:27.167Z,1026.762
2023-05-19T13:36:27.668Z,1026.731
2023-05-19T13:41:30.698Z,1026.682
2023-05-19T13:46:40.946Z,1026.708
2023-05-19T13:51:27.540Z,1026.585
2023-05-19T13:56:27.299Z,1026.666
2023-05-19T14:01:27.220Z,1026.662
2023-05-19T14:06:27.993Z,1026.594
2023-05-19T14:14:08.823Z,1026.513
2023-05-19T14:19:07.491Z,1026.427
2023-05-19T14:24:07.488Z,1026.486
2023-05-19T14:29:09.056Z,1026.515
2023-05-19T14:34:07.691Z,1026.507
2023-05-19T14:39:07.599Z,1026.462
2023-05-19T14:44:08.002Z,1026.493
2023-05-19T14:49:07.783Z,1026.397
2023-05-19T14:54:07.494Z,1026.408
2023-05-19T14:59:07.748Z,1026.383
2023-05-19T15:04:10.407Z,1026.32
2023-05-19T15:09:07.984Z,1026.202
2023-05-19T15:14:10.017Z,1026.25
2023-05-19T15:19:07.707Z,1026.243
2023-05-19T15:24:07.691Z,1026.225
2023-05-19T15:29:07.618Z,1026.202
2023-05-19T15:34:07.588Z,1026.208
2023-05-19T15:39:07.583Z,1026.161
2023-05-19T15:44:08.990Z,1026.135
2023-05-19T15:49:07.545Z,1026.072
2023-05-19T15:54:07.952Z,1026.036
2023-05-19T15:59:07.655Z,1025.975
2023-05-19T16:04:07.786Z,1025.944
2023-05-19T16:09:07.526Z,1025.924
2023-05-19T16:14:07.455Z,1025.901
2023-05-19T16:19:07.461Z,1025.941
2023-05-19T16:24:07.668Z,1025.895
2023-05-19T16:29:09.921Z,1025.827
2023-05-19T16:34:08.656Z,1025.84
2023-05-19T16:39:10.827Z,1025.779
2023-05-19T16:44:09.773Z,1025.807
2023-05-19T16:49:18.033Z,1025.768
2023-05-19T16:54:12.663Z,1025.763
2023-05-19T16:59:07.580Z,1025.772
2023-05-19T17:04:13.752Z,1025.76
2023-05-19T17:09:07.646Z,1025.84
2023-05-19T17:14:08.173Z,1025.879
2023-05-19T17:19:07.667Z,1025.907
2023-05-19T17:24:07.529Z,1025.838
2023-05-19T17:29:07.537Z,1025.845
2023-05-19T17:34:07.530Z,1025.869
2023-05-19T17:39:10.404Z,1025.866
2023-05-19T17:44:13.414Z,1025.895
2023-05-19T17:49:07.606Z,1025.995
2023-05-19T17:54:07.922Z,1026.068
2023-05-19T17:59:07.666Z,1025.992
2023-05-19T18:04:08.170Z,1026.047
2023-05-19T18:09:08.959Z,1025.995
2023-05-19T18:14:07.427Z,1026.034
2023-05-19T18:19:07.835Z,1026.118
2023-05-19T18:24:07.441Z,1026.15
2023-05-19T18:29:07.450Z,1026.109
2023-05-19T18:34:07.880Z,1026.153
2023-05-19T18:39:08.596Z,1026.224
2023-05-19T18:44:10.368Z,1026.224
2023-05-19T18:49:09.190Z,1026.307
2023-05-19T18:54:07.743Z,1026.347
2023-05-19T18:59:19.072Z,1026.38
2023-05-19T19:04:07.561Z,1026.356
2023-05-19T19:09:10.059Z,1026.284
2023-05-19T19:14:07.506Z,1026.398
2023-05-19T19:19:16.347Z,1026.402
2023-05-19T19:24:07.822Z,1026.413
2023-05-19T19:29:07.504Z,1026.413
2023-05-19T19:34:09.174Z,1026.447
2023-05-19T19:39:10.408Z,1026.496
2023-05-19T19:44:07.518Z,1026.634
2023-05-19T19:49:07.933Z,1026.635
2023-05-19T19:54:07.365Z,1026.673
2023-05-19T19:59:07.668Z,1026.691
2023-05-19T20:04:15.854Z,1026.746
2023-05-19T20:09:07.622Z,1026.759
2023-05-19T20:14:07.600Z,1026.815
2023-05-19T20:19:14.804Z,1026.859
2023-05-19T20:24:07.779Z,1026.933
2023-05-19T20:29:09.631Z,1027.069
2023-05-19T20:34:08.114Z,1027.051
2023-05-19T20:39:09.900Z,1027.108
2023-05-19T20:44:08.441Z,1027.123
2023-05-19T20:49:07.490Z,1027.087
2023-05-19T20:54:09.829Z,1027.056
2023-05-19T20:59:07.561Z,1027.1
2023-05-19T21:04:08.255Z,1027.114
2023-05-19T21:09:18.839Z,1027.182
2023-05-19T21:14:10.544Z,1027.166
2023-05-19T21:19:07.534Z,1027.267
2023-05-19T21:24:09.304Z,1027.306
2023-05-19T21:29:07.719Z,1027.389
2023-05-19T21:34:08.862Z,1027.409
2023-05-19T21:39:07.823Z,1027.422
2023-05-19T21:44:07.837Z,1027.393
2023-05-19T21:49:08.633Z,1027.421
2023-05-19T21:54:07.343Z,1027.399
2023-05-19T21:59:07.644Z,1027.474
2023-05-19T22:04:07.583Z,1027.464
2023-05-19T22:09:07.362Z,1027.427
2023-05-19T22:14:07.393Z,1027.375
2023-05-19T22:19:07.587Z,1027.365
2023-05-19T22:24:08.509Z,1027.389
2023-05-19T22:29:07.517Z,1027.334
2023-05-19T22:34:12.439Z,1027.326
2023-05-19T22:39:07.374Z,1027.331
2023-05-19T22:44:09.080Z,1027.314
2023-05-19T22:49:07.523Z,1027.328
2023-05-19T22:54:07.693Z,1027.335
2023-05-19T22:59:07.306Z,1027.338
2023-05-19T23:04:07.453Z,1027.375
2023-05-19T23:09:08.156Z,1027.377
2023-05-19T23:14:07.577Z,1027.262
2023-05-19T23:19:07.684Z,1027.307
2023-05-19T23:24:08.689Z,1027.241
2023-05-19T23:29:07.426Z,1027.305
2023-05-19T23:34:07.520Z,1027.286
2023-05-19T23:39:07.841Z,1027.251
2023-05-19T23:44:10.053Z,1027.283
2023-05-19T23:49:08.609Z,1027.282
2023-05-19T23:54:10.282Z,1027.191
2023-05-19T23:59:10.142Z,1027.17
